createdAt,value
2023-08-12T00:02:18.649Z,15.90
2023-08-12T00:04:48.017Z,15.20
2023-08-12T00:07:15.066Z,16.10
2023-08-12T00:09:42.557Z,16.00
2023-08-12T00:12:09.623Z,15.00
2023-08-12T00:14:36.739Z,15.10
2023-08-12T00:17:03.900Z,15.30
2023-08-12T00:19:30.934Z,15.40
2023-08-12T00:21:57.982Z,14.90
2023-08-12T00:24:24.991Z,15.90
2023-08-12T00:26:52.397Z,15.40
2023-08-12T00:29:19.496Z,15.10
2023-08-12T00:31:46.526Z,15.40
2023-08-12T00:34:13.638Z,15.50
2023-08-12T00:36:40.692Z,15.40
2023-08-12T00:39:07.838Z,14.90
2023-08-12T00:41:34.922Z,15.10
2023-08-12T00:44:01.928Z,15.30
2023-08-12T00:46:29.403Z,15.60
2023-08-12T00:48:56.589Z,15.40
2023-08-12T00:51:23.800Z,15.50
2023-08-12T00:53:52.543Z,14.80
2023-08-12T00:56:22.247Z,15.30
2023-08-12T00:58:49.878Z,15.40
2023-08-12T01:01:19.139Z,15.40
2023-08-12T01:03:46.735Z,15.30
2023-08-12T01:06:14.449Z,15.00
2023-08-12T01:08:41.574Z,14.90
2023-08-12T01:12:05.781Z,14.80
2023-08-12T01:14:46.947Z,15.50
2023-08-12T01:17:16.987Z,14.90
2023-08-12T01:19:46.219Z,15.00
2023-08-12T01:22:14.201Z,14.90
2023-08-12T01:24:43.832Z,15.40
2023-08-12T01:27:15.578Z,15.40
2023-08-12T01:29:46.776Z,15.00
2023-08-12T01:32:40.328Z,14.70
2023-08-12T01:35:18.659Z,14.00
2023-08-12T01:37:47.230Z,15.40
2023-08-12T01:40:18.088Z,15.20
2023-08-12T01:42:46.457Z,15.00
2023-08-12T01:45:13.523Z,15.00
2023-08-12T01:47:45.706Z,14.80
2023-08-12T01:50:12.909Z,14.70
2023-08-12T01:52:39.953Z,14.70
2023-08-12T01:55:07.336Z,14.70
2023-08-12T01:57:34.425Z,15.00
2023-08-12T02:00:03.636Z,15.00
2023-08-12T02:02:30.799Z,14.90
2023-08-12T02:04:57.975Z,14.60
2023-08-12T02:07:24.985Z,14.70
2023-08-12T02:09:52.018Z,14.60
2023-08-12T02:12:19.053Z,14.70
2023-08-12T02:14:46.148Z,14.40
2023-08-12T02:17:13.396Z,13.80
2023-08-12T02:19:40.688Z,14.20
2023-08-12T02:22:07.771Z,14.10
2023-08-12T02:24:34.846Z,13.50
2023-08-12T02:27:01.873Z,14.00
2023-08-12T02:29:28.939Z,13.80
2023-08-12T02:31:55.980Z,13.30
2023-08-12T02:34:23.100Z,14.20
2023-08-12T02:36:50.115Z,14.80
2023-08-12T02:39:17.842Z,14.90
2023-08-12T02:41:44.924Z,14.60
2023-08-12T02:44:11.900Z,14.00
2023-08-12T02:46:38.956Z,14.80
2023-08-12T02:49:06.064Z,14.80
2023-08-12T02:51:33.063Z,14.00
2023-08-12T02:54:00.211Z,13.90
2023-08-12T02:56:27.267Z,13.90
2023-08-12T02:58:54.335Z,13.90
2023-08-12T03:01:23.218Z,14.20
2023-08-12T03:03:50.272Z,14.20
2023-08-12T03:06:17.637Z,14.20
2023-08-12T03:08:44.677Z,14.10
2023-08-12T03:11:11.731Z,14.10
2023-08-12T03:13:38.713Z,14.00
2023-08-12T03:16:05.847Z,14.40
2023-08-12T03:21:00.356Z,13.80
2023-08-12T03:25:54.793Z,13.90
2023-08-12T03:28:21.897Z,13.80
2023-08-12T03:30:53.532Z,13.90
2023-08-12T03:33:20.977Z,14.00
2023-08-12T03:35:49.324Z,14.20
2023-08-12T03:40:44.519Z,13.80
2023-08-12T03:43:11.731Z,14.10
2023-08-12T03:45:46.294Z,14.00
2023-08-12T03:48:13.513Z,14.20
2023-08-12T03:50:43.443Z,14.20
2023-08-12T03:53:10.621Z,13.90
2023-08-12T03:55:37.611Z,14.30
2023-08-12T03:58:05.270Z,14.20
2023-08-12T04:00:32.471Z,14.90
2023-08-12T04:02:59.722Z,13.90
2023-08-12T04:05:27.016Z,13.70
2023-08-12T04:07:54.211Z,13.10
2023-08-12T04:10:21.318Z,12.90
2023-08-12T04:12:48.417Z,13.90
2023-08-12T04:15:15.569Z,14.40
2023-08-12T04:17:42.895Z,13.80
2023-08-12T04:30:20.568Z,14.40
2023-08-12T04:32:47.731Z,13.90
2023-08-12T04:35:14.921Z,14.60
2023-08-12T04:37:42.121Z,14.40
2023-08-12T04:40:10.223Z,14.80
2023-08-12T04:42:37.711Z,15.20
2023-08-12T04:45:08.634Z,15.40
2023-08-12T04:47:35.766Z,15.90
2023-08-12T04:50:03.765Z,15.80
2023-08-12T04:52:30.824Z,15.90
2023-08-12T04:54:58.001Z,17.20
2023-08-12T04:57:25.076Z,18.00
2023-08-12T04:59:56.471Z,18.70
2023-08-12T05:02:23.900Z,19.30
2023-08-12T05:04:52.932Z,19.90
2023-08-12T05:07:20.253Z,20.10
2023-08-12T05:09:47.558Z,19.80
2023-08-12T05:12:17.746Z,20.10
2023-08-12T05:14:48.575Z,20.00
2023-08-12T05:17:15.680Z,20.70
2023-08-12T05:19:42.723Z,20.70
2023-08-12T05:22:10.274Z,20.90
2023-08-12T05:24:37.611Z,20.90
2023-08-12T05:27:05.517Z,21.00
2023-08-12T05:29:32.840Z,21.70
2023-08-12T05:31:59.954Z,22.60
2023-08-12T05:34:28.253Z,23.40
2023-08-12T05:36:57.625Z,23.90
2023-08-12T05:39:24.721Z,23.30
2023-08-12T05:41:53.623Z,23.70
2023-08-12T05:44:20.761Z,23.80
2023-08-12T05:46:47.757Z,23.70
2023-08-12T05:51:07.401Z,23.80
2023-08-12T06:01:58.837Z,24.70
2023-08-12T06:04:26.079Z,25.00
2023-08-12T06:06:53.293Z,25.30
2023-08-12T06:09:20.497Z,24.90
2023-08-12T06:11:47.467Z,25.10
2023-08-12T06:14:14.694Z,25.00
2023-08-12T06:16:41.987Z,25.20
2023-08-12T06:19:09.541Z,26.10
2023-08-12T06:21:36.582Z,27.00
2023-08-12T06:24:03.853Z,27.20
2023-08-12T06:26:30.886Z,28.30
2023-08-12T06:28:57.903Z,27.40
2023-08-12T06:31:24.955Z,27.70
2023-08-12T06:33:52.163Z,27.30
2023-08-12T06:36:19.185Z,26.90
2023-08-12T06:38:46.213Z,26.70
2023-08-12T06:41:13.207Z,27.20
2023-08-12T06:43:40.190Z,27.60
2023-08-12T06:46:07.296Z,28.20
2023-08-12T06:48:34.494Z,28.30
2023-08-12T06:51:05.224Z,28.80
2023-08-12T06:53:32.378Z,29.80
2023-08-12T06:55:59.528Z,30.90
2023-08-12T06:58:26.544Z,30.30
2023-08-12T07:00:54.448Z,30.30
2023-08-12T07:03:21.796Z,30.10
2023-08-12T07:05:48.910Z,30.40
2023-08-12T07:08:15.977Z,30.70
2023-08-12T07:10:45.735Z,30.80
2023-08-12T07:13:12.798Z,30.60
2023-08-12T07:15:39.908Z,31.20
2023-08-12T07:18:07.113Z,31.10
2023-08-12T07:20:34.213Z,31.60
2023-08-12T07:23:04.351Z,31.50
2023-08-12T07:25:31.553Z,31.70
2023-08-12T07:27:59.865Z,30.60
2023-08-12T07:30:27.078Z,30.50
2023-08-12T07:32:54.295Z,30.30
2023-08-12T07:35:35.611Z,30.00
2023-08-12T07:38:02.976Z,30.20
2023-08-12T07:40:32.827Z,30.20
2023-08-12T07:43:00.077Z,31.10
2023-08-12T07:45:27.392Z,31.50
2023-08-12T07:47:55.126Z,31.10
2023-08-12T07:50:22.493Z,31.20
2023-08-12T07:52:49.731Z,33.30
2023-08-12T07:55:17.403Z,32.60
2023-08-12T07:57:45.904Z,32.90
2023-08-12T08:00:13.634Z,31.20
2023-08-12T08:05:09.244Z,31.10
2023-08-12T08:07:36.528Z,32.10
2023-08-12T08:10:04.172Z,33.00
2023-08-12T08:12:31.220Z,33.60
2023-08-12T08:14:58.267Z,34.30
2023-08-12T08:17:28.075Z,33.90
2023-08-12T08:19:55.130Z,33.40
2023-08-12T08:22:22.156Z,33.90
2023-08-12T08:24:49.132Z,34.10
2023-08-12T08:27:16.191Z,34.30
2023-08-12T08:29:43.262Z,33.30
2023-08-12T08:32:11.831Z,33.60
2023-08-12T08:34:39.072Z,34.10
2023-08-12T08:37:06.279Z,34.30
2023-08-12T08:39:33.805Z,34.30
2023-08-12T08:42:01.273Z,34.40
2023-08-12T08:44:36.400Z,34.20
2023-08-12T08:47:04.639Z,34.20
2023-08-12T08:49:33.258Z,34.50
2023-08-12T08:52:01.576Z,34.60
2023-08-12T08:54:29.470Z,34.50
2023-08-12T08:57:00.441Z,34.40
2023-08-12T08:59:37.544Z,34.40
2023-08-12T09:02:06.723Z,34.30
2023-08-12T09:04:35.187Z,34.20
2023-08-12T09:07:03.156Z,34.30
2023-08-12T09:09:30.413Z,34.20
2023-08-12T09:11:57.712Z,34.50
2023-08-12T09:14:24.975Z,34.30
2023-08-12T09:16:52.059Z,35.20
2023-08-12T09:19:19.311Z,34.60
2023-08-12T09:21:54.938Z,34.90
2023-08-12T09:24:26.775Z,34.80
2023-08-12T09:26:56.064Z,35.10
2023-08-12T09:29:34.704Z,34.70
2023-08-12T09:32:16.461Z,34.50
2023-08-12T09:34:52.426Z,33.10
2023-08-12T09:37:23.116Z,33.70
2023-08-12T09:40:01.408Z,34.20
2023-08-12T09:42:29.803Z,34.10
2023-08-12T09:44:58.477Z,34.00
2023-08-12T09:47:28.530Z,34.30
2023-08-12T09:57:07.599Z,34.20
2023-08-12T09:59:56.139Z,34.00
2023-08-12T10:02:32.204Z,34.20
2023-08-12T10:05:03.555Z,34.10
2023-08-12T10:07:31.309Z,33.70
2023-08-12T10:09:59.423Z,33.80
2023-08-12T10:12:37.193Z,34.40
2023-08-12T10:15:16.184Z,34.10
2023-08-12T10:17:49.270Z,33.50
2023-08-12T10:20:28.964Z,33.90
2023-08-12T10:23:08.228Z,33.90
2023-08-12T10:28:08.904Z,34.20
2023-08-12T10:33:18.263Z,33.30
2023-08-12T10:36:00.432Z,32.50
2023-08-12T10:41:17.041Z,32.80
2023-08-12T10:44:04.677Z,32.40
2023-08-12T10:46:37.345Z,33.50
2023-08-12T10:51:54.097Z,33.50
2023-08-12T10:54:31.671Z,33.80
2023-08-12T10:57:05.437Z,34.00
2023-08-12T10:59:47.921Z,34.30
2023-08-12T11:02:35.222Z,33.70
2023-08-12T11:05:11.808Z,33.30
2023-08-12T11:07:42.543Z,33.80
2023-08-12T11:10:16.700Z,33.80
2023-08-12T11:12:54.196Z,33.70
2023-08-12T11:15:33.538Z,33.80
2023-08-12T11:18:04.908Z,33.50
2023-08-12T11:20:32.770Z,33.10
2023-08-12T11:23:01.326Z,33.40
2023-08-12T11:25:31.956Z,33.60
2023-08-12T11:27:59.899Z,33.20
2023-08-12T11:30:29.588Z,32.90
2023-08-12T11:32:59.854Z,33.40
2023-08-12T11:35:27.472Z,33.20
2023-08-12T11:37:59.268Z,33.10
2023-08-12T11:40:28.554Z,33.30
2023-08-12T11:42:56.449Z,33.30
2023-08-12T11:45:27.099Z,33.10
2023-08-12T11:47:55.938Z,33.00
2023-08-12T11:50:27.420Z,33.20
2023-08-12T11:52:57.323Z,33.60
2023-08-12T11:55:25.900Z,33.60
2023-08-12T11:57:53.903Z,33.30
2023-08-12T12:00:21.726Z,33.10
2023-08-12T12:02:57.342Z,32.30
2023-08-12T12:05:33.483Z,32.00
2023-08-12T12:08:01.004Z,32.50
2023-08-12T12:10:35.445Z,32.80
2023-08-12T12:13:05.644Z,32.70
2023-08-12T12:15:40.658Z,32.60
2023-08-12T12:18:14.862Z,33.40
2023-08-12T12:20:59.131Z,32.90
2023-08-12T12:23:30.423Z,31.60
2023-08-12T12:26:03.379Z,32.10
2023-08-12T12:28:32.776Z,32.10
2023-08-12T12:30:59.937Z,32.60
2023-08-12T12:33:27.022Z,32.40
2023-08-12T12:35:58.185Z,32.40
2023-08-12T12:38:27.765Z,32.90
2023-08-12T12:40:54.890Z,33.00
2023-08-12T12:43:22.135Z,32.90
2023-08-12T12:45:49.237Z,33.30
2023-08-12T12:48:16.342Z,33.30
2023-08-12T12:50:43.376Z,32.00
2023-08-12T12:53:10.451Z,32.70
2023-08-12T12:55:37.726Z,32.00
2023-08-12T12:58:05.144Z,32.30
2023-08-12T13:00:32.124Z,31.90
2023-08-12T13:02:59.433Z,32.30
2023-08-12T13:07:54.101Z,31.70
2023-08-12T13:10:21.206Z,31.30
2023-08-12T13:12:49.515Z,31.50
2023-08-12T13:15:16.889Z,31.50
2023-08-12T13:20:12.713Z,30.80
2023-08-12T13:22:39.827Z,31.30
2023-08-12T13:25:07.695Z,30.70
2023-08-12T13:27:35.097Z,31.30
2023-08-12T13:40:40.927Z,30.80
2023-08-12T13:45:38.566Z,30.40
2023-08-12T13:48:06.281Z,31.00
2023-08-12T13:50:36.909Z,30.30
2023-08-12T13:53:04.244Z,30.00
2023-08-12T13:55:31.365Z,30.30
2023-08-12T13:58:16.809Z,30.40
2023-08-12T14:05:38.980Z,30.20
2023-08-12T14:08:07.035Z,30.00
2023-08-12T14:10:34.154Z,30.20
2023-08-12T14:13:07.822Z,29.70
2023-08-12T14:15:36.038Z,29.30
2023-08-12T14:18:03.452Z,29.80
2023-08-12T14:20:30.560Z,30.00
2023-08-12T14:22:58.448Z,29.50
2023-08-12T14:25:25.536Z,29.50
2023-08-12T14:27:52.748Z,29.20
2023-08-12T14:31:57.024Z,29.80
2023-08-12T14:45:00.414Z,29.40
2023-08-12T14:47:37.683Z,29.40
2023-08-12T14:50:05.579Z,29.20
2023-08-12T14:52:33.015Z,29.20
2023-08-12T14:55:00.199Z,29.40
2023-08-12T14:57:28.666Z,29.00
2023-08-12T14:59:55.773Z,29.00
2023-08-12T15:04:54.897Z,28.80
2023-08-12T15:09:50.352Z,29.10
2023-08-12T15:12:17.430Z,28.70
2023-08-12T15:14:44.474Z,28.50
2023-08-12T15:17:12.080Z,29.50
2023-08-12T15:22:06.609Z,28.30
2023-08-12T15:24:33.752Z,28.70
2023-08-12T15:27:00.814Z,28.70
2023-08-12T15:31:56.710Z,28.60
2023-08-12T15:36:52.761Z,28.60
2023-08-12T15:44:16.918Z,28.80
2023-08-12T15:49:12.409Z,28.40
2023-08-12T15:51:42.814Z,28.40
2023-08-12T15:54:09.915Z,28.30
2023-08-12T15:59:07.395Z,27.70
2023-08-12T16:04:04.460Z,28.10
2023-08-12T16:14:13.522Z,28.30
2023-08-12T16:24:04.179Z,27.80
2023-08-12T16:28:58.941Z,27.50
2023-08-12T16:31:26.564Z,26.60
2023-08-12T16:33:56.846Z,27.10
2023-08-12T16:51:16.036Z,26.70
2023-08-12T17:01:09.584Z,26.70
2023-08-12T17:03:36.762Z,26.80
2023-08-12T17:11:09.088Z,26.40
2023-08-12T17:33:22.889Z,26.10
2023-08-12T17:40:51.200Z,25.40
2023-08-12T17:58:17.384Z,25.00
2023-08-12T18:03:14.736Z,24.80
2023-08-12T18:10:42.273Z,25.10
2023-08-12T18:15:40.008Z,24.40
2023-08-12T18:30:49.562Z,24.20
2023-08-12T18:35:47.870Z,23.90
2023-08-12T18:38:15.136Z,24.00
2023-08-12T18:40:42.302Z,23.80
2023-08-12T18:43:14.770Z,23.60
2023-08-12T18:48:14.664Z,23.40
2023-08-12T18:58:20.033Z,23.20
2023-08-12T19:03:21.394Z,22.90
2023-08-12T19:08:23.192Z,22.80
2023-08-12T19:11:11.068Z,22.60
2023-08-12T19:13:45.807Z,22.60
2023-08-12T19:18:46.157Z,22.30
2023-08-12T19:23:45.796Z,22.50
2023-08-12T19:33:51.164Z,22.20
2023-08-12T19:36:21.467Z,22.00
2023-08-12T19:39:01.625Z,21.80
2023-08-12T19:41:40.246Z,21.70
2023-08-12T19:44:38.094Z,21.60
2023-08-12T19:52:26.690Z,21.30
2023-08-12T19:55:00.753Z,21.40
2023-08-12T20:00:13.800Z,21.30
2023-08-12T20:02:48.213Z,21.10
2023-08-12T20:05:46.271Z,21.10
2023-08-12T20:10:46.298Z,21.20
2023-08-12T20:20:56.276Z,21.10
2023-08-12T20:26:03.589Z,21.00
2023-08-12T20:36:15.936Z,20.70
2023-08-12T20:41:22.703Z,20.80
2023-08-12T20:46:30.849Z,20.80
2023-08-12T20:49:00.511Z,20.70
2023-08-12T20:53:55.506Z,19.70
2023-08-12T21:01:34.877Z,19.90
2023-08-12T21:04:34.819Z,20.10
2023-08-12T21:12:08.703Z,19.50
2023-08-12T21:17:11.347Z,19.40
2023-08-12T21:19:38.502Z,20.40
2023-08-12T21:24:37.710Z,19.70
2023-08-12T21:34:35.052Z,19.50
2023-08-12T21:37:04.583Z,19.90
2023-08-12T21:39:31.613Z,19.20
2023-08-12T21:41:58.830Z,19.50
2023-08-12T21:47:00.708Z,19.30
2023-08-12T21:49:27.877Z,19.00
2023-08-12T21:51:54.906Z,19.40
2023-08-12T21:54:29.745Z,19.40
2023-08-12T21:59:29.083Z,18.40
2023-08-12T22:06:55.833Z,18.60
2023-08-12T22:09:22.903Z,19.00
2023-08-12T22:11:58.929Z,19.20
2023-08-12T22:14:26.555Z,18.90
2023-08-12T22:16:54.677Z,18.90
2023-08-12T22:19:21.692Z,18.60
2023-08-12T22:21:48.833Z,18.90
2023-08-12T22:24:17.083Z,19.20
2023-08-12T22:26:44.485Z,19.40
2023-08-12T22:29:15.416Z,18.30
2023-08-12T22:31:42.618Z,18.70
2023-08-12T22:39:06.857Z,18.20
2023-08-12T22:41:35.100Z,17.80
2023-08-12T22:44:02.431Z,19.20
2023-08-12T22:46:29.495Z,18.30
2023-08-12T22:48:56.650Z,18.40
2023-08-12T22:51:23.763Z,17.80
2023-08-12T22:53:50.807Z,18.50
2023-08-12T22:56:18.233Z,18.90
2023-08-12T22:58:46.610Z,18.40
2023-08-12T23:01:13.784Z,18.30
2023-08-12T23:03:41.080Z,17.80
2023-08-12T23:06:08.281Z,18.40
2023-08-12T23:08:35.347Z,18.00
2023-08-12T23:13:29.919Z,17.90
2023-08-12T23:15:56.987Z,18.00
2023-08-12T23:18:23.967Z,17.50
2023-08-12T23:20:51.008Z,17.80
2023-08-12T23:23:18.047Z,17.70
2023-08-12T23:25:45.102Z,17.80
2023-08-12T23:30:39.761Z,17.70
2023-08-12T23:33:06.825Z,17.60
2023-08-12T23:35:34.669Z,17.70
2023-08-12T23:38:01.704Z,17.70
2023-08-12T23:40:29.416Z,17.60
2023-08-12T23:42:56.479Z,16.80
2023-08-12T23:45:23.628Z,18.10
2023-08-12T23:47:50.806Z,17.90
2023-08-12T23:50:17.971Z,18.10
2023-08-12T23:52:45.152Z,17.80
2023-08-12T23:55:12.328Z,17.70
2023-08-12T23:57:39.517Z,17.00
